createdAt,value
2023-10-22T00:00:22.592Z,94699
2023-10-22T00:01:31.271Z,94694
2023-10-22T00:02:41.115Z,94700
2023-10-22T00:03:48.781Z,94699
2023-10-22T00:04:58.374Z,94698
2023-10-22T00:06:08.058Z,94702
2023-10-22T00:07:16.718Z,94703
2023-10-22T00:08:25.524Z,94705
2023-10-22T00:09:34.259Z,94706
2023-10-22T00:10:42.968Z,94710
2023-10-22T00:11:52.680Z,94709
2023-10-22T00:13:01.333Z,94717
2023-10-22T00:14:11.017Z,94717
2023-10-22T00:15:20.733Z,94726
2023-10-22T00:16:28.441Z,94733
2023-10-22T00:17:37.163Z,94734
2023-10-22T00:18:45.838Z,94735
2023-10-22T00:19:54.473Z,94739
2023-10-22T00:21:04.246Z,94735
2023-10-22T00:22:11.903Z,94737
2023-10-22T00:23:21.617Z,94740
2023-10-22T00:24:31.280Z,94737
2023-10-22T00:25:38.958Z,94739
2023-10-22T00:26:47.688Z,94735
2023-10-22T00:27:56.314Z,94737
2023-10-22T00:29:05.992Z,94740
2023-10-22T00:30:15.748Z,94740
2023-10-22T00:31:23.380Z,94740
2023-10-22T00:32:33.216Z,94741
2023-10-22T00:33:42.858Z,94743
2023-10-22T00:34:50.417Z,94744
2023-10-22T00:35:59.102Z,94743
2023-10-22T00:37:07.744Z,94743
2023-10-22T00:38:16.433Z,94745
2023-10-22T00:39:26.112Z,94745
2023-10-22T00:40:34.795Z,94741
2023-10-22T00:41:44.520Z,94744
2023-10-22T00:42:54.330Z,94744
2023-10-22T00:44:04.030Z,94745
2023-10-22T00:45:12.746Z,94745
2023-10-22T00:46:22.386Z,94742
2023-10-22T00:47:32.116Z,94748
2023-10-22T00:48:41.770Z,94750
2023-10-22T00:49:50.451Z,94750
2023-10-22T00:51:00.148Z,94749
2023-10-22T00:52:09.839Z,94751
2023-10-22T00:53:18.565Z,94753
2023-10-22T00:54:27.186Z,94749
2023-10-22T00:55:35.881Z,94755
2023-10-22T00:56:45.721Z,94752
2023-10-22T00:57:55.420Z,94749
2023-10-22T00:59:04.077Z,94751
2023-10-22T01:00:12.788Z,94750
2023-10-22T01:01:22.501Z,94750
2023-10-22T01:02:31.230Z,94752
2023-10-22T01:03:39.935Z,94754
2023-10-22T01:04:49.589Z,94756
2023-10-22T01:05:58.263Z,94755
2023-10-22T01:07:07.954Z,94754
2023-10-22T01:08:16.588Z,94758
2023-10-22T01:09:24.374Z,94756
2023-10-22T01:10:33.965Z,94760
2023-10-22T01:11:42.709Z,94759
2023-10-22T01:12:51.453Z,94762
2023-10-22T01:14:00.138Z,94761
2023-10-22T01:15:08.837Z,94757
2023-10-22T01:16:18.547Z,94752
2023-10-22T01:17:26.245Z,94754
2023-10-22T01:18:35.896Z,94756
2023-10-22T01:19:45.537Z,94755
2023-10-22T01:20:54.205Z,94754
2023-10-22T01:22:03.878Z,94755
2023-10-22T01:23:12.575Z,94757
2023-10-22T01:24:21.258Z,94751
2023-10-22T01:25:31.010Z,94759
2023-10-22T01:26:40.639Z,94766
2023-10-22T01:27:48.365Z,94760
2023-10-22T01:28:58.110Z,94760
2023-10-22T01:30:06.824Z,94763
2023-10-22T01:31:15.530Z,94761
2023-10-22T01:32:25.170Z,94765
2023-10-22T01:33:32.929Z,94758
2023-10-22T01:34:42.540Z,94757
2023-10-22T01:35:51.235Z,94762
2023-10-22T01:36:59.939Z,94757
2023-10-22T01:38:09.675Z,94760
2023-10-22T01:39:17.386Z,94761
2023-10-22T01:40:26.036Z,94767
2023-10-22T01:41:34.726Z,94764
2023-10-22T01:42:43.387Z,94771
2023-10-22T01:43:53.079Z,94770
2023-10-22T01:45:02.767Z,94768
2023-10-22T01:46:11.476Z,94770
2023-10-22T01:47:21.116Z,94766
2023-10-22T01:48:30.856Z,94770
2023-10-22T01:49:39.500Z,94769
2023-10-22T01:50:49.191Z,94769
2023-10-22T01:51:57.838Z,94770
2023-10-22T01:53:07.496Z,94774
2023-10-22T01:54:16.199Z,94774
2023-10-22T01:55:24.880Z,94774
2023-10-22T01:56:34.577Z,94777
2023-10-22T01:57:43.305Z,94773
2023-10-22T01:58:52.972Z,94775
2023-10-22T02:00:00.661Z,94776
2023-10-22T02:01:09.390Z,94775
2023-10-22T02:02:18.994Z,94774
2023-10-22T02:03:28.762Z,94774
2023-10-22T02:04:39.519Z,94776
2023-10-22T02:05:48.069Z,94776
2023-10-22T02:06:57.737Z,94775
2023-10-22T02:08:07.547Z,94772
2023-10-22T02:09:16.136Z,94774
2023-10-22T02:10:24.792Z,94773
2023-10-22T02:11:33.477Z,94776
2023-10-22T02:12:42.138Z,94773
2023-10-22T02:13:51.855Z,94777
2023-10-22T02:15:01.519Z,94780
2023-10-22T02:16:10.165Z,94777
2023-10-22T02:17:19.813Z,94779
2023-10-22T02:18:28.545Z,94782
2023-10-22T02:19:37.175Z,94782
2023-10-22T02:20:45.898Z,94784
2023-10-22T02:21:54.560Z,94786
2023-10-22T02:23:04.242Z,94786
2023-10-22T02:24:11.942Z,94788
2023-10-22T02:25:20.632Z,94787
2023-10-22T02:26:30.325Z,94788
2023-10-22T02:27:38.018Z,94787
2023-10-22T02:28:46.658Z,94791
2023-10-22T02:29:55.377Z,94792
2023-10-22T02:31:05.040Z,94793
2023-10-22T02:32:14.696Z,94792
2023-10-22T02:33:23.517Z,94795
2023-10-22T02:34:33.134Z,94797
2023-10-22T02:35:42.808Z,94801
2023-10-22T02:36:52.460Z,94794
2023-10-22T02:38:01.184Z,94797
2023-10-22T02:39:10.879Z,94796
2023-10-22T02:40:19.583Z,94802
2023-10-22T02:41:29.299Z,94807
2023-10-22T02:42:37.030Z,94806
2023-10-22T02:43:46.714Z,94807
2023-10-22T02:44:56.428Z,94803
2023-10-22T02:46:04.171Z,94806
2023-10-22T02:47:13.812Z,94804
2023-10-22T02:48:23.509Z,94807
2023-10-22T02:49:32.151Z,94806
2023-10-22T02:50:41.827Z,94803
2023-10-22T02:51:49.504Z,94806
2023-10-22T02:52:58.160Z,94806
2023-10-22T02:54:07.891Z,94807
2023-10-22T02:55:15.530Z,94809
2023-10-22T02:56:24.248Z,94811
2023-10-22T02:57:33.909Z,94810
2023-10-22T02:58:42.753Z,94804
2023-10-22T02:59:52.492Z,94807
2023-10-22T03:01:01.120Z,94808
2023-10-22T03:02:10.802Z,94807
2023-10-22T03:03:20.589Z,94811
2023-10-22T03:04:29.188Z,94814
2023-10-22T03:05:38.038Z,94810
2023-10-22T03:06:46.499Z,94817
2023-10-22T03:07:56.164Z,94814
2023-10-22T03:09:05.843Z,94814
2023-10-22T03:10:14.508Z,94817
2023-10-22T03:11:24.188Z,94813
2023-10-22T03:12:33.858Z,94812
2023-10-22T03:13:42.553Z,94815
2023-10-22T03:14:51.216Z,94813
2023-10-22T03:15:59.959Z,94812
2023-10-22T03:17:08.597Z,94808
2023-10-22T03:18:18.344Z,94808
2023-10-22T03:19:26.958Z,94813
2023-10-22T03:20:35.643Z,94811
2023-10-22T03:21:45.315Z,94807
2023-10-22T03:22:53.988Z,94809
2023-10-22T03:24:01.703Z,94812
2023-10-22T03:25:10.386Z,94806
2023-10-22T03:26:19.073Z,94807
2023-10-22T03:27:28.734Z,94813
2023-10-22T03:28:36.407Z,94814
2023-10-22T03:29:45.128Z,94813
2023-10-22T03:30:53.804Z,94813
2023-10-22T03:32:02.446Z,94809
2023-10-22T03:33:12.264Z,94815
2023-10-22T03:34:20.932Z,94813
2023-10-22T03:35:29.598Z,94812
2023-10-22T03:36:39.301Z,94810
2023-10-22T03:37:47.012Z,94812
2023-10-22T03:38:54.757Z,94815
2023-10-22T03:40:04.449Z,94812
2023-10-22T03:41:14.118Z,94809
2023-10-22T03:42:23.781Z,94808
2023-10-22T03:43:32.496Z,94815
2023-10-22T03:44:41.164Z,94815
2023-10-22T03:45:50.902Z,94813
2023-10-22T03:46:59.567Z,94812
2023-10-22T03:48:08.228Z,94814
2023-10-22T03:49:17.969Z,94813
2023-10-22T03:50:25.631Z,94816
2023-10-22T03:51:35.284Z,94818
2023-10-22T03:52:44.558Z,94816
2023-10-22T03:53:52.653Z,94819
2023-10-22T03:55:02.313Z,94820
2023-10-22T03:56:11.953Z,94823
2023-10-22T03:57:21.686Z,94822
2023-10-22T03:58:30.392Z,94820
2023-10-22T03:59:40.304Z,94822
2023-10-22T04:00:50.035Z,94818
2023-10-22T04:01:58.804Z,94823
2023-10-22T04:03:08.433Z,94819
2023-10-22T04:04:17.094Z,94815
2023-10-22T04:05:25.789Z,94816
2023-10-22T04:06:35.482Z,94818
2023-10-22T04:07:45.125Z,94819
2023-10-22T04:08:53.812Z,94820
2023-10-22T04:10:03.495Z,94818
2023-10-22T04:11:12.155Z,94823
2023-10-22T04:12:21.850Z,94822
2023-10-22T04:13:31.562Z,94823
2023-10-22T04:14:41.314Z,94826
2023-10-22T04:15:50.926Z,94823
2023-10-22T04:16:59.582Z,94829
2023-10-22T04:18:09.338Z,94833
2023-10-22T04:19:18.965Z,94829
2023-10-22T04:20:26.652Z,94830
2023-10-22T04:21:36.324Z,94829
2023-10-22T04:22:45.087Z,94823
2023-10-22T04:23:53.728Z,94834
2023-10-22T04:25:03.425Z,94836
2023-10-22T04:26:12.198Z,94833
2023-10-22T04:27:20.849Z,94839
2023-10-22T04:28:30.537Z,94838
2023-10-22T04:29:40.279Z,94838
2023-10-22T04:30:49.950Z,94837
2023-10-22T04:31:59.589Z,94836
2023-10-22T04:33:08.465Z,94840
2023-10-22T04:34:18.022Z,94840
2023-10-22T04:35:26.723Z,94842
2023-10-22T04:36:35.402Z,94839
2023-10-22T04:37:45.162Z,94843
2023-10-22T04:38:53.898Z,94843
2023-10-22T04:40:02.548Z,94847
2023-10-22T04:41:10.224Z,94845
2023-10-22T04:42:19.939Z,94849
2023-10-22T04:43:29.624Z,94848
2023-10-22T04:44:39.541Z,94848
2023-10-22T04:45:47.974Z,94846
2023-10-22T04:46:57.641Z,94848
2023-10-22T04:48:05.404Z,94850
2023-10-22T04:49:14.052Z,94849
2023-10-22T04:50:22.750Z,94853
2023-10-22T04:51:31.480Z,94851
2023-10-22T04:52:40.146Z,94852
2023-10-22T04:53:47.841Z,94852
2023-10-22T04:54:56.536Z,94854
2023-10-22T04:56:05.175Z,94851
2023-10-22T04:57:13.896Z,94853
2023-10-22T04:58:23.566Z,94852
2023-10-22T04:59:33.239Z,94853
2023-10-22T05:00:42.123Z,94855
2023-10-22T05:01:51.794Z,94848
2023-10-22T05:02:59.530Z,94856
2023-10-22T05:04:09.195Z,94858
2023-10-22T05:05:18.844Z,94856
2023-10-22T05:06:27.595Z,94861
2023-10-22T05:07:36.240Z,94862
2023-10-22T05:08:44.966Z,94859
2023-10-22T05:09:54.624Z,94862
2023-10-22T05:11:04.386Z,94865
2023-10-22T05:12:13.056Z,94866
2023-10-22T05:13:22.704Z,94867
2023-10-22T05:14:32.386Z,94872
2023-10-22T05:15:42.065Z,94869
2023-10-22T05:16:50.741Z,94871
2023-10-22T05:17:59.436Z,94880
2023-10-22T05:19:09.114Z,94876
2023-10-22T05:20:18.829Z,94881
2023-10-22T05:21:27.526Z,94884
2023-10-22T05:22:37.196Z,94887
2023-10-22T05:23:46.910Z,94889
2023-10-22T05:24:57.161Z,94888
2023-10-22T05:26:05.276Z,94895
2023-10-22T05:27:13.985Z,94890
2023-10-22T05:28:23.610Z,94888
2023-10-22T05:29:33.354Z,94890
2023-10-22T05:30:42.023Z,94892
2023-10-22T05:31:50.772Z,94894
2023-10-22T05:33:00.439Z,94895
2023-10-22T05:34:10.097Z,94892
2023-10-22T05:35:19.770Z,94896
2023-10-22T05:36:29.417Z,94895
2023-10-22T05:37:38.114Z,94899
2023-10-22T05:38:47.786Z,94894
2023-10-22T05:39:56.426Z,94896
2023-10-22T05:41:05.190Z,94897
2023-10-22T05:42:14.941Z,94900
2023-10-22T05:43:23.686Z,94897
2023-10-22T05:44:33.343Z,94901
2023-10-22T05:45:42.064Z,94903
2023-10-22T05:46:50.758Z,94904
2023-10-22T05:48:00.486Z,94907
2023-10-22T05:49:08.154Z,94901
2023-10-22T05:50:17.870Z,94910
2023-10-22T05:51:26.731Z,94909
2023-10-22T05:52:34.482Z,94909
2023-10-22T05:53:44.244Z,94913
2023-10-22T05:54:52.834Z,94913
2023-10-22T05:56:01.509Z,94918
2023-10-22T05:57:10.205Z,94915
2023-10-22T05:58:18.857Z,94921
2023-10-22T05:59:28.547Z,94921
2023-10-22T06:00:38.184Z,94921
2023-10-22T06:01:48.038Z,94923
2023-10-22T06:02:57.710Z,94930
2023-10-22T06:04:06.401Z,94926
2023-10-22T06:05:23.629Z,94934
2023-10-22T06:06:26.636Z,94938
2023-10-22T06:07:35.330Z,94937
2023-10-22T06:08:45.013Z,94936
2023-10-22T06:09:53.693Z,94940
2023-10-22T06:11:02.399Z,94943
2023-10-22T06:12:12.066Z,94944
2023-10-22T06:13:19.698Z,94947
2023-10-22T06:14:28.378Z,94948
2023-10-22T06:15:38.080Z,94950
2023-10-22T06:16:47.708Z,94952
2023-10-22T06:17:57.492Z,94956
2023-10-22T06:19:05.090Z,94961
2023-10-22T06:20:14.734Z,94963
2023-10-22T06:21:24.491Z,94969
2023-10-22T06:22:34.108Z,94967
2023-10-22T06:23:43.862Z,94970
2023-10-22T06:24:52.460Z,94973
2023-10-22T06:26:01.142Z,94974
2023-10-22T06:27:10.929Z,94971
2023-10-22T06:28:18.566Z,94972
2023-10-22T06:29:26.223Z,94973
2023-10-22T06:30:35.900Z,94978
2023-10-22T06:31:43.634Z,94982
2023-10-22T06:32:53.281Z,94979
2023-10-22T06:34:01.934Z,94981
2023-10-22T06:35:10.587Z,94981
2023-10-22T06:36:20.380Z,94982
2023-10-22T06:37:29.981Z,94983
2023-10-22T06:38:38.634Z,94992
2023-10-22T06:39:48.330Z,94993
2023-10-22T06:40:56.001Z,94993
2023-10-22T06:42:04.688Z,94996
2023-10-22T06:43:13.323Z,95001
2023-10-22T06:44:23.039Z,94999
2023-10-22T06:45:32.685Z,95002
2023-10-22T06:46:41.390Z,95005
2023-10-22T06:47:50.116Z,95006
2023-10-22T06:48:59.696Z,95007
2023-10-22T06:50:08.349Z,95007
2023-10-22T06:51:17.165Z,95013
2023-10-22T06:52:27.185Z,95010
2023-10-22T06:53:35.318Z,95015
2023-10-22T06:54:44.990Z,95015
2023-10-22T06:55:52.638Z,95019
2023-10-22T06:57:02.361Z,95018
2023-10-22T06:58:12.019Z,95021
2023-10-22T06:59:20.674Z,95027
2023-10-22T07:00:29.367Z,95027
2023-10-22T07:01:39.108Z,95025
2023-10-22T07:02:48.756Z,95029
2023-10-22T07:03:58.415Z,95026
2023-10-22T07:05:08.990Z,95028
2023-10-22T07:06:17.701Z,95030
2023-10-22T07:07:27.335Z,95037
2023-10-22T07:08:34.993Z,95037
2023-10-22T07:09:43.645Z,95035
2023-10-22T07:10:53.368Z,95044
2023-10-22T07:12:02.061Z,95043
2023-10-22T07:13:10.685Z,95047
2023-10-22T07:14:20.415Z,95048
2023-10-22T07:15:30.108Z,95048
2023-10-22T07:16:39.757Z,95047
2023-10-22T07:17:48.566Z,95050
2023-10-22T07:18:57.241Z,95050
2023-10-22T07:20:06.888Z,95052
2023-10-22T07:21:15.670Z,95057
2023-10-22T07:22:25.221Z,95057
2023-10-22T07:23:33.311Z,95056
2023-10-22T07:24:41.554Z,95060
2023-10-22T07:25:51.219Z,95055
2023-10-22T07:27:01.004Z,95061
2023-10-22T07:28:09.640Z,95057
2023-10-22T07:29:18.290Z,95054
2023-10-22T07:30:28.018Z,95056
2023-10-22T07:31:37.765Z,95060
2023-10-22T07:32:46.473Z,95058
2023-10-22T07:33:55.046Z,95056
2023-10-22T07:35:04.724Z,95054
2023-10-22T07:36:13.409Z,95058
2023-10-22T07:37:23.045Z,95060
2023-10-22T07:38:31.705Z,95057
2023-10-22T07:39:40.363Z,95056
2023-10-22T07:40:50.049Z,95058
2023-10-22T07:41:58.777Z,95062
2023-10-22T07:43:08.468Z,95066
2023-10-22T07:44:18.134Z,95068
2023-10-22T07:45:27.708Z,95068
2023-10-22T07:46:35.478Z,95069
2023-10-22T07:47:44.199Z,95070
2023-10-22T07:48:53.864Z,95072
2023-10-22T07:50:03.541Z,95071
2023-10-22T07:51:12.284Z,95081
2023-10-22T07:52:21.924Z,95080
2023-10-22T07:53:30.763Z,95082
2023-10-22T07:54:40.503Z,95084
2023-10-22T07:55:50.186Z,95086
2023-10-22T07:56:58.907Z,95086
2023-10-22T07:58:07.526Z,95090
2023-10-22T07:59:16.188Z,95094
2023-10-22T08:00:24.863Z,95091
2023-10-22T08:01:34.523Z,95088
2023-10-22T08:02:43.523Z,95089
2023-10-22T08:03:51.296Z,95092
2023-10-22T08:05:00.823Z,95093
2023-10-22T08:06:09.537Z,95095
2023-10-22T08:07:18.192Z,95093
2023-10-22T08:08:26.867Z,95093
2023-10-22T08:09:35.492Z,95100
2023-10-22T08:10:45.173Z,95100
2023-10-22T08:11:53.922Z,95099
2023-10-22T08:13:03.552Z,95101
2023-10-22T08:14:13.227Z,95102
2023-10-22T08:15:22.951Z,95108
2023-10-22T08:16:31.575Z,95111
2023-10-22T08:17:40.266Z,95112
2023-10-22T08:18:49.936Z,95115
2023-10-22T08:19:59.604Z,95112
2023-10-22T08:21:08.298Z,95112
2023-10-22T08:22:16.975Z,95114
2023-10-22T08:23:26.609Z,95118
2023-10-22T08:24:34.297Z,95119
2023-10-22T08:25:42.924Z,95122
2023-10-22T08:26:50.631Z,95120
2023-10-22T08:27:59.358Z,95119
2023-10-22T08:29:09.055Z,95123
2023-10-22T08:30:18.854Z,95121
2023-10-22T08:31:27.498Z,95117
2023-10-22T08:32:37.171Z,95124
2023-10-22T08:33:44.860Z,95124
2023-10-22T08:34:53.542Z,95124
2023-10-22T08:36:03.220Z,95129
2023-10-22T08:37:12.880Z,95135
2023-10-22T08:38:22.606Z,95128
2023-10-22T08:39:30.339Z,95128
2023-10-22T08:40:39.951Z,95129
2023-10-22T08:41:49.692Z,95132
2023-10-22T08:42:58.333Z,95128
2023-10-22T08:44:07.016Z,95134
2023-10-22T08:45:16.728Z,95134
2023-10-22T08:46:25.426Z,95134
2023-10-22T08:47:35.161Z,95131
2023-10-22T08:48:42.898Z,95138
2023-10-22T08:49:52.574Z,95140
2023-10-22T08:51:02.320Z,95145
2023-10-22T08:52:10.989Z,95148
2023-10-22T08:53:19.650Z,95148
2023-10-22T08:54:28.390Z,95147
2023-10-22T08:55:38.013Z,95148
2023-10-22T08:56:47.713Z,95146
2023-10-22T08:57:56.367Z,95146
2023-10-22T08:59:05.015Z,95145
2023-10-22T09:00:14.836Z,95146
2023-10-22T09:01:23.477Z,95140
2023-10-22T09:02:32.341Z,95147
2023-10-22T09:03:41.170Z,95146
2023-10-22T09:04:49.756Z,95143
2023-10-22T09:05:59.414Z,95143
2023-10-22T09:07:07.136Z,95145
2023-10-22T09:08:16.787Z,95146
2023-10-22T09:09:26.531Z,95142
2023-10-22T09:10:34.212Z,95143
2023-10-22T09:11:42.903Z,95136
2023-10-22T09:12:51.700Z,95141
2023-10-22T09:14:01.365Z,95141
2023-10-22T09:15:11.114Z,95141
2023-10-22T09:16:18.806Z,95136
2023-10-22T09:17:28.535Z,95142
2023-10-22T09:18:38.233Z,95136
2023-10-22T09:19:47.871Z,95138
2023-10-22T09:20:56.597Z,95133
2023-10-22T09:22:05.204Z,95133
2023-10-22T09:23:13.856Z,95129
2023-10-22T09:24:23.620Z,95134
2023-10-22T09:25:31.253Z,95133
2023-10-22T09:26:39.975Z,95134
2023-10-22T09:27:49.639Z,95134
2023-10-22T09:28:57.388Z,95133
2023-10-22T09:30:06.080Z,95138
2023-10-22T09:31:13.754Z,95132
2023-10-22T09:32:23.465Z,95133
2023-10-22T09:33:34.253Z,95136
2023-10-22T09:34:41.838Z,95129
2023-10-22T09:35:50.508Z,95133
2023-10-22T09:37:00.175Z,95121
2023-10-22T09:38:09.851Z,95131
2023-10-22T09:39:18.588Z,95132
2023-10-22T09:40:28.190Z,95130
2023-10-22T09:41:37.886Z,95130
2023-10-22T09:42:47.582Z,95134
2023-10-22T09:43:55.210Z,95146
2023-10-22T09:45:03.938Z,95135
2023-10-22T09:46:13.632Z,95143
2023-10-22T09:47:21.242Z,95142
2023-10-22T09:48:29.970Z,95142
2023-10-22T09:49:38.631Z,95137
2023-10-22T09:50:48.443Z,95143
2023-10-22T09:51:57.079Z,95132
2023-10-22T09:53:06.747Z,95138
2023-10-22T09:54:16.473Z,95139
2023-10-22T09:55:25.121Z,95147
2023-10-22T09:56:33.826Z,95151
2023-10-22T09:57:43.552Z,95145
2023-10-22T09:58:52.312Z,95142
2023-10-22T10:00:02.072Z,95145
2023-10-22T10:01:10.806Z,95146
2023-10-22T10:02:23.543Z,95143
2023-10-22T10:03:30.334Z,95142
2023-10-22T10:04:39.972Z,95146
2023-10-22T10:05:49.693Z,95143
2023-10-22T10:06:59.328Z,95142
2023-10-22T10:08:09.024Z,95139
2023-10-22T10:09:19.699Z,95141
2023-10-22T10:10:28.350Z,95144
2023-10-22T10:11:37.040Z,95147
2023-10-22T10:12:46.715Z,95145
2023-10-22T10:13:55.425Z,95141
2023-10-22T10:15:05.142Z,95142
2023-10-22T10:16:14.796Z,95145
2023-10-22T10:17:23.483Z,95140
2023-10-22T10:18:32.258Z,95140
2023-10-22T10:19:41.838Z,95140
2023-10-22T10:20:51.556Z,95130
2023-10-22T10:22:01.174Z,95140
2023-10-22T10:23:08.894Z,95142
2023-10-22T10:24:18.683Z,95139
2023-10-22T10:25:28.315Z,95137
2023-10-22T10:26:36.986Z,95139
2023-10-22T10:27:46.775Z,95134
2023-10-22T10:28:56.543Z,95134
2023-10-22T10:30:05.277Z,95127
2023-10-22T10:31:14.916Z,95127
2023-10-22T10:32:22.625Z,95129
2023-10-22T10:33:31.410Z,95132
2023-10-22T10:34:41.925Z,95132
2023-10-22T10:35:51.079Z,95132
2023-10-22T10:37:00.398Z,95127
2023-10-22T10:38:09.100Z,95126
2023-10-22T10:39:18.806Z,95134
2023-10-22T10:40:29.057Z,95128
2023-10-22T10:41:36.084Z,95127
2023-10-22T10:42:44.740Z,95129
2023-10-22T10:43:54.462Z,95131
2023-10-22T10:45:02.195Z,95130
2023-10-22T10:46:10.790Z,95132
2023-10-22T10:47:19.671Z,95128
2023-10-22T10:48:29.286Z,95136
2023-10-22T10:49:38.898Z,95133
2023-10-22T10:50:46.628Z,95128
2023-10-22T10:51:56.289Z,95131
2023-10-22T10:53:05.934Z,95124
2023-10-22T10:54:14.631Z,95129
2023-10-22T10:55:23.372Z,95135
2023-10-22T10:56:32.128Z,95137
2023-10-22T10:57:40.800Z,95127
2023-10-22T10:58:49.470Z,95129
2023-10-22T10:59:58.195Z,95129
2023-10-22T11:01:06.879Z,95131
2023-10-22T11:02:16.565Z,95132
2023-10-22T11:03:25.261Z,95129
2023-10-22T11:04:34.072Z,95119
2023-10-22T11:05:43.737Z,95126
2023-10-22T11:06:53.434Z,95121
2023-10-22T11:08:04.180Z,95122
2023-10-22T11:09:10.900Z,95123
2023-10-22T11:10:19.568Z,95123
2023-10-22T11:11:29.271Z,95132
2023-10-22T11:12:38.968Z,95125
2023-10-22T11:13:48.652Z,95121
2023-10-22T11:14:57.717Z,95126
2023-10-22T11:16:06.045Z,95123
2023-10-22T11:17:15.694Z,95129
2023-10-22T11:18:24.359Z,95126
2023-10-22T11:19:32.996Z,95124
2023-10-22T11:20:45.501Z,95120
2023-10-22T11:21:52.389Z,95120
2023-10-22T11:23:01.075Z,95121
2023-10-22T11:24:09.790Z,95132
2023-10-22T11:25:19.478Z,95129
2023-10-22T11:26:29.256Z,95130
2023-10-22T11:27:37.927Z,95124
2023-10-22T11:28:46.641Z,95122
2023-10-22T11:29:57.330Z,95124
2023-10-22T11:31:07.022Z,95129
2023-10-22T11:32:15.736Z,95128
2023-10-22T11:33:25.511Z,95127
2023-10-22T11:34:34.167Z,95128
2023-10-22T11:35:43.856Z,95118
2023-10-22T11:36:51.623Z,95117
2023-10-22T11:38:00.327Z,95115
2023-10-22T11:39:10.012Z,95110
2023-10-22T11:40:19.658Z,95108
2023-10-22T11:41:28.530Z,95112
2023-10-22T11:42:38.025Z,95114
2023-10-22T11:43:46.670Z,95113
2023-10-22T11:44:56.362Z,95114
2023-10-22T11:46:03.030Z,95124
2023-10-22T11:47:12.661Z,95111
2023-10-22T11:48:21.456Z,95114
2023-10-22T11:49:31.104Z,95118
2023-10-22T11:50:39.805Z,95116
2023-10-22T11:51:47.471Z,95118
2023-10-22T11:52:57.218Z,95120
2023-10-22T11:54:06.889Z,95122
2023-10-22T11:55:32.597Z,95124
2023-10-22T11:56:26.227Z,95122
2023-10-22T11:57:33.930Z,95122
2023-10-22T11:58:42.637Z,95122
2023-10-22T11:59:52.341Z,95125
2023-10-22T12:01:02.065Z,95122
2023-10-22T12:02:10.830Z,95124
2023-10-22T12:03:19.573Z,95127
2023-10-22T12:04:28.407Z,95130
2023-10-22T12:05:38.100Z,95127
2023-10-22T12:06:45.838Z,95125
2023-10-22T12:07:54.561Z,95127
2023-10-22T12:09:05.248Z,95135
2023-10-22T12:10:14.914Z,95135
2023-10-22T12:11:24.566Z,95136
2023-10-22T12:12:34.349Z,95132
2023-10-22T12:13:44.006Z,95133
2023-10-22T12:14:53.715Z,95132
2023-10-22T12:16:02.370Z,95138
2023-10-22T12:17:11.049Z,95134
2023-10-22T12:18:21.817Z,95131
2023-10-22T12:19:30.411Z,95134
2023-10-22T12:20:40.148Z,95127
2023-10-22T12:21:48.827Z,95127
2023-10-22T12:22:57.547Z,95129
2023-10-22T12:24:16.705Z,95131
2023-10-22T12:25:17.904Z,95132
2023-10-22T12:26:26.560Z,95133
2023-10-22T12:27:36.363Z,95138
2023-10-22T12:28:45.001Z,95123
2023-10-22T12:29:53.685Z,95128
2023-10-22T12:31:02.431Z,95129
2023-10-22T12:32:12.104Z,95132
2023-10-22T12:33:21.897Z,95127
2023-10-22T12:34:30.495Z,95124
2023-10-22T12:35:39.267Z,95126
2023-10-22T12:36:48.943Z,95127
2023-10-22T12:37:58.651Z,95126
2023-10-22T12:39:07.331Z,95128
2023-10-22T12:40:17.051Z,95134
2023-10-22T12:41:25.709Z,95131
2023-10-22T12:42:35.441Z,95130
2023-10-22T12:43:44.080Z,95128
2023-10-22T12:44:52.737Z,95134
2023-10-22T12:46:02.463Z,95137
2023-10-22T12:47:11.172Z,95132
2023-10-22T12:48:19.892Z,95134
2023-10-22T12:49:28.464Z,95133
2023-10-22T12:50:37.139Z,95138
2023-10-22T12:51:46.783Z,95140
2023-10-22T12:52:54.445Z,95138
2023-10-22T12:54:03.126Z,95131
2023-10-22T12:55:12.845Z,95127
2023-10-22T12:56:21.529Z,95131
2023-10-22T12:57:31.254Z,95123
2023-10-22T12:58:39.923Z,95126
2023-10-22T12:59:48.682Z,95132
2023-10-22T13:01:00.515Z,95140
2023-10-22T13:02:08.146Z,95138
2023-10-22T13:03:17.891Z,95140
2023-10-22T13:04:27.689Z,95147
2023-10-22T13:05:37.412Z,95144
2023-10-22T13:06:47.174Z,95143
2023-10-22T13:07:56.802Z,95147
2023-10-22T13:09:05.514Z,95145
2023-10-22T13:10:15.189Z,95146
2023-10-22T13:11:22.843Z,95149
2023-10-22T13:12:31.668Z,95150
2023-10-22T13:13:41.293Z,95154
2023-10-22T13:14:51.086Z,95150
2023-10-22T13:15:57.742Z,95145
2023-10-22T13:17:06.454Z,95142
2023-10-22T13:18:16.151Z,95143
2023-10-22T13:19:25.792Z,95146
2023-10-22T13:20:35.488Z,95145
2023-10-22T13:21:44.203Z,95145
2023-10-22T13:22:53.987Z,95134
2023-10-22T13:24:02.668Z,95137
2023-10-22T13:25:11.293Z,95142
2023-10-22T13:26:20.955Z,95143
2023-10-22T13:27:29.690Z,95146
2023-10-22T13:28:39.334Z,95141
2023-10-22T13:29:49.000Z,95143
2023-10-22T13:30:57.687Z,95137
2023-10-22T13:32:07.438Z,95139
2023-10-22T13:33:17.188Z,95147
2023-10-22T13:34:26.776Z,95152
2023-10-22T13:35:36.507Z,95152
2023-10-22T13:36:46.200Z,95147
2023-10-22T13:37:55.853Z,95148
2023-10-22T13:39:04.614Z,95152
2023-10-22T13:40:13.305Z,95157
2023-10-22T13:41:23.007Z,95158
2023-10-22T13:42:31.707Z,95160
2023-10-22T13:43:41.415Z,95153
2023-10-22T13:44:51.125Z,95154
2023-10-22T13:46:00.789Z,95158
2023-10-22T13:47:10.512Z,95161
2023-10-22T13:48:19.309Z,95159
2023-10-22T13:49:28.907Z,95156
2023-10-22T13:50:36.632Z,95165
2023-10-22T13:51:45.271Z,95165
2023-10-22T13:52:54.934Z,95166
2023-10-22T13:54:04.660Z,95168
2023-10-22T13:55:14.365Z,95169
2023-10-22T13:56:22.993Z,95167
2023-10-22T13:57:31.710Z,95164
2023-10-22T13:58:41.348Z,95166
2023-10-22T13:59:51.035Z,95164
2023-10-22T14:00:59.693Z,95166
2023-10-22T14:02:09.427Z,95167
2023-10-22T14:03:17.233Z,95164
2023-10-22T14:04:25.954Z,95163
2023-10-22T14:05:35.219Z,95160
2023-10-22T14:06:43.996Z,95162
2023-10-22T14:07:53.684Z,95163
2023-10-22T14:09:02.420Z,95162
2023-10-22T14:10:11.148Z,95167
2023-10-22T14:11:20.852Z,95167
2023-10-22T14:12:29.642Z,95164
2023-10-22T14:13:38.336Z,95166
2023-10-22T14:14:47.128Z,95161
2023-10-22T14:15:55.806Z,95158
2023-10-22T14:17:03.687Z,95159
2023-10-22T14:18:13.460Z,95168
2023-10-22T14:19:23.089Z,95171
2023-10-22T14:20:32.751Z,95168
2023-10-22T14:21:42.469Z,95166
2023-10-22T14:22:51.231Z,95164
2023-10-22T14:24:00.907Z,95162
2023-10-22T14:25:10.615Z,95161
2023-10-22T14:26:20.338Z,95164
2023-10-22T14:27:30.058Z,95160
2023-10-22T14:28:39.700Z,95167
2023-10-22T14:29:49.497Z,95168
2023-10-22T14:30:58.195Z,95166
2023-10-22T14:32:05.907Z,95167
2023-10-22T14:33:14.680Z,95168
2023-10-22T14:34:25.277Z,95167
2023-10-22T14:35:34.088Z,95163
2023-10-22T14:36:43.749Z,95165
2023-10-22T14:37:53.467Z,95163
2023-10-22T14:39:03.148Z,95167
2023-10-22T14:40:12.850Z,95161
2023-10-22T14:41:22.534Z,95163
2023-10-22T14:42:32.241Z,95164
2023-10-22T14:43:41.895Z,95163
2023-10-22T14:44:51.615Z,95161
2023-10-22T14:45:59.329Z,95167
2023-10-22T14:47:07.969Z,95163
2023-10-22T14:48:17.690Z,95163
2023-10-22T14:49:25.335Z,95164